createdAt,value
2022-11-01T00:02:12.402Z,88.50
2022-11-01T00:04:39.862Z,88.40
2022-11-01T00:07:06.882Z,88.40
2022-11-01T00:09:33.719Z,88.30
2022-11-01T00:12:01.183Z,88.20
2022-11-01T00:14:28.126Z,88.30
2022-11-01T00:16:55.143Z,88.20
2022-11-01T00:19:22.144Z,88.20
2022-11-01T00:21:49.042Z,88.20
2022-11-01T00:24:15.978Z,88.10
2022-11-01T00:26:43.144Z,88.10
2022-11-01T00:29:12.087Z,88.20
2022-11-01T00:31:38.932Z,88.30
2022-11-01T00:34:06.805Z,88.20
2022-11-01T00:36:35.540Z,89.00
2022-11-01T00:39:04.764Z,88.10
2022-11-01T00:41:32.051Z,88.20
2022-11-01T00:43:58.872Z,88.10
2022-11-01T00:46:26.184Z,88.10
2022-11-01T00:48:53.126Z,88.30
2022-11-01T00:51:19.991Z,88.20
2022-11-01T00:53:46.758Z,88.20
2022-11-01T00:56:13.990Z,88.20
2022-11-01T00:58:40.808Z,88.10
2022-11-01T01:01:08.258Z,88.20
2022-11-01T01:03:35.795Z,88.20
2022-11-01T01:06:02.777Z,88.30
2022-11-01T01:08:29.598Z,88.30
2022-11-01T01:10:56.928Z,88.20
2022-11-01T01:13:23.809Z,88.00
2022-11-01T01:15:50.725Z,88.00
2022-11-01T01:18:18.318Z,87.90
2022-11-01T01:20:45.345Z,87.90
2022-11-01T01:23:12.189Z,87.90
2022-11-01T01:25:41.463Z,87.80
2022-11-01T01:28:09.005Z,87.80
2022-11-01T01:30:39.993Z,87.70
2022-11-01T01:33:07.200Z,87.70
2022-11-01T01:35:34.065Z,87.70
2022-11-01T01:38:01.337Z,87.70
2022-11-01T01:40:28.667Z,87.70
2022-11-01T01:42:55.596Z,87.70
2022-11-01T01:45:36.483Z,87.60
2022-11-01T01:48:35.383Z,87.80
2022-11-01T01:51:07.414Z,87.50
2022-11-01T01:53:45.614Z,87.40
2022-11-01T01:56:27.306Z,87.20
2022-11-01T01:59:08.219Z,87.00
2022-11-01T02:01:40.508Z,87.00
2022-11-01T02:04:36.418Z,86.70
2022-11-01T02:07:03.758Z,87.10
2022-11-01T02:09:31.810Z,86.70
2022-11-01T02:11:58.828Z,86.60
2022-11-01T02:14:26.571Z,86.50
2022-11-01T02:17:10.577Z,86.50
2022-11-01T02:20:24.639Z,86.70
2022-11-01T02:23:26.265Z,86.80
2022-11-01T02:26:44.627Z,86.80
2022-11-01T02:29:40.590Z,87.10
2022-11-01T02:32:18.087Z,87.00
2022-11-01T02:35:12.522Z,86.80
2022-11-01T02:38:02.839Z,87.40
2022-11-01T02:40:47.260Z,87.30
2022-11-01T02:43:49.231Z,87.20
2022-11-01T02:46:38.307Z,87.20
2022-11-01T02:49:07.295Z,87.30
2022-11-01T02:51:36.209Z,87.50
2022-11-01T02:54:08.746Z,87.60
2022-11-01T02:56:37.607Z,87.80
2022-11-01T02:59:06.246Z,87.70
2022-11-01T03:01:36.121Z,87.70
2022-11-01T03:04:03.623Z,87.80
2022-11-01T03:06:40.638Z,87.80
2022-11-01T03:09:11.913Z,87.90
2022-11-01T03:11:57.225Z,87.90
2022-11-01T03:14:42.953Z,88.20
2022-11-01T03:17:21.228Z,88.10
2022-11-01T03:20:05.270Z,88.00
2022-11-01T03:22:47.364Z,88.10
2022-11-01T03:25:40.439Z,88.10
2022-11-01T03:28:25.362Z,88.10
2022-11-01T03:31:13.687Z,88.20
2022-11-01T03:33:47.953Z,88.20
2022-11-01T03:36:20.006Z,88.10
2022-11-01T03:38:57.821Z,88.10
2022-11-01T03:41:26.748Z,88.20
2022-11-01T03:43:54.699Z,88.00
2022-11-01T03:46:22.027Z,88.10
2022-11-01T03:48:48.792Z,88.20
2022-11-01T03:51:15.857Z,88.30
2022-11-01T03:53:42.768Z,88.30
2022-11-01T03:56:09.739Z,88.20
2022-11-01T03:58:42.205Z,88.30
2022-11-01T04:01:10.754Z,88.20
2022-11-01T04:03:38.155Z,88.30
2022-11-01T04:06:06.516Z,88.30
2022-11-01T04:08:34.272Z,88.30
2022-11-01T04:11:01.182Z,88.50
2022-11-01T04:13:28.074Z,88.70
2022-11-01T04:16:14.043Z,88.90
2022-11-01T04:18:59.518Z,89.10
2022-11-01T04:21:26.858Z,89.30
2022-11-01T04:23:53.796Z,89.30
2022-11-01T04:26:23.630Z,89.40
2022-11-01T04:28:57.437Z,89.40
2022-11-01T04:31:34.602Z,89.40
2022-11-01T04:34:03.923Z,89.40
2022-11-01T04:36:30.842Z,89.40
2022-11-01T04:38:58.498Z,89.40
2022-11-01T04:41:28.743Z,89.20
2022-11-01T04:43:59.644Z,89.10
2022-11-01T04:46:31.023Z,89.20
2022-11-01T04:48:57.879Z,89.20
2022-11-01T04:51:24.926Z,89.20
2022-11-01T04:53:52.997Z,89.30
2022-11-01T04:56:19.829Z,89.40
2022-11-01T04:58:46.988Z,89.70
2022-11-01T05:01:14.934Z,89.50
2022-11-01T05:03:43.046Z,89.60
2022-11-01T05:06:10.353Z,89.60
2022-11-01T05:08:37.771Z,89.70
2022-11-01T05:11:04.810Z,89.70
2022-11-01T05:13:31.868Z,89.60
2022-11-01T05:16:18.353Z,89.70
2022-11-01T05:18:45.952Z,89.70
2022-11-01T05:21:12.817Z,89.60
2022-11-01T05:23:39.664Z,89.60
2022-11-01T05:26:06.466Z,89.50
2022-11-01T05:28:34.582Z,89.50
2022-11-01T05:31:01.496Z,89.50
2022-11-01T05:33:28.412Z,89.40
2022-11-01T05:35:55.433Z,89.40
2022-11-01T05:38:22.368Z,89.30
2022-11-01T05:40:49.179Z,89.30
2022-11-01T05:43:16.248Z,89.20
2022-11-01T05:45:43.083Z,89.10
2022-11-01T05:48:11.806Z,89.00
2022-11-01T05:50:38.838Z,89.00
2022-11-01T05:53:10.120Z,89.00
2022-11-01T05:55:37.732Z,88.90
2022-11-01T05:58:05.546Z,88.90
2022-11-01T06:00:33.715Z,88.90
2022-11-01T06:03:01.233Z,89.00
2022-11-01T06:05:29.796Z,88.90
2022-11-01T06:07:57.492Z,88.90
2022-11-01T06:10:24.609Z,88.90
2022-11-01T06:12:52.168Z,88.90
2022-11-01T06:15:19.109Z,88.90
2022-11-01T06:17:45.932Z,89.10
2022-11-01T06:20:13.276Z,89.20
2022-11-01T06:22:40.567Z,89.40
2022-11-01T06:25:08.133Z,89.50
2022-11-01T06:27:34.977Z,89.70
2022-11-01T06:30:01.950Z,89.80
2022-11-01T06:32:28.796Z,90.30
2022-11-01T06:34:55.937Z,90.00
2022-11-01T06:37:23.101Z,90.10
2022-11-01T06:39:50.493Z,90.10
2022-11-01T06:42:17.468Z,90.30
2022-11-01T06:44:44.350Z,90.30
2022-11-01T06:47:14.155Z,90.40
2022-11-01T06:49:41.692Z,90.50
2022-11-01T06:52:08.720Z,90.50
2022-11-01T06:54:35.728Z,90.60
2022-11-01T06:57:02.638Z,90.70
2022-11-01T06:59:29.511Z,90.80
2022-11-01T07:01:56.483Z,90.80
2022-11-01T07:04:23.780Z,90.90
2022-11-01T07:06:50.564Z,91.00
2022-11-01T07:09:17.536Z,91.00
2022-11-01T07:11:44.522Z,91.00
2022-11-01T07:14:11.460Z,91.00
2022-11-01T07:16:38.952Z,91.00
2022-11-01T07:19:06.353Z,91.00
2022-11-01T07:21:33.397Z,91.00
2022-11-01T07:24:00.418Z,91.00
2022-11-01T07:26:27.281Z,91.00
2022-11-01T07:28:54.104Z,90.90
2022-11-01T07:31:21.294Z,90.90
2022-11-01T07:33:48.820Z,90.80
2022-11-01T07:36:16.577Z,90.70
2022-11-01T07:38:43.658Z,90.50
2022-11-01T07:41:11.204Z,90.40
2022-11-01T07:43:39.566Z,90.20
2022-11-01T07:46:07.405Z,90.10
2022-11-01T07:48:37.080Z,90.10
2022-11-01T07:51:06.616Z,90.00
2022-11-01T07:53:34.447Z,90.00
2022-11-01T07:56:02.160Z,89.80
2022-11-01T07:58:29.293Z,89.60
2022-11-01T08:00:56.567Z,89.50
2022-11-01T08:03:24.219Z,89.50
2022-11-01T08:05:51.165Z,89.30
2022-11-01T08:08:18.470Z,89.10
2022-11-01T08:10:46.352Z,88.90
2022-11-01T08:13:25.226Z,88.70
2022-11-01T08:15:53.523Z,88.50
2022-11-01T08:18:23.145Z,88.40
2022-11-01T08:20:51.520Z,88.20
2022-11-01T08:23:19.128Z,88.60
2022-11-01T08:25:46.902Z,87.60
2022-11-01T08:28:19.124Z,87.30
2022-11-01T08:30:48.830Z,87.10
2022-11-01T08:33:15.763Z,87.00
2022-11-01T08:35:49.778Z,86.90
2022-11-01T08:38:18.176Z,86.70
2022-11-01T08:40:44.983Z,86.40
2022-11-01T08:43:11.799Z,85.90
2022-11-01T08:45:38.960Z,85.50
2022-11-01T08:48:06.452Z,85.10
2022-11-01T08:50:35.230Z,84.80
2022-11-01T08:53:07.632Z,84.40
2022-11-01T08:55:37.861Z,83.80
2022-11-01T08:58:06.311Z,83.60
2022-11-01T09:00:33.691Z,82.90
2022-11-01T09:03:00.615Z,82.20
2022-11-01T09:05:29.657Z,81.70
2022-11-01T09:07:58.945Z,81.30
2022-11-01T09:10:26.024Z,81.00
2022-11-01T09:12:52.961Z,80.80
2022-11-01T09:15:19.856Z,80.30
2022-11-01T09:17:46.715Z,79.90
2022-11-01T09:20:15.113Z,79.40
2022-11-01T09:22:42.261Z,78.80
2022-11-01T09:25:09.854Z,78.00
2022-11-01T09:27:37.447Z,77.10
2022-11-01T09:30:06.051Z,76.30
2022-11-01T09:32:32.957Z,75.70
2022-11-01T09:35:00.781Z,75.20
2022-11-01T09:37:27.884Z,74.50
2022-11-01T09:39:54.736Z,74.00
2022-11-01T09:42:32.596Z,72.90
2022-11-01T09:45:09.476Z,71.30
2022-11-01T09:47:37.576Z,70.50
2022-11-01T09:50:43.876Z,70.20
2022-11-01T09:53:21.356Z,69.50
2022-11-01T09:56:35.363Z,68.80
2022-11-01T09:59:34.169Z,68.80
2022-11-01T10:02:26.300Z,69.20
2022-11-01T10:05:34.253Z,68.60
2022-11-01T10:08:35.882Z,67.90
2022-11-01T10:11:29.861Z,67.90
2022-11-01T10:14:39.181Z,67.80
2022-11-01T10:17:36.229Z,68.00
2022-11-01T10:20:04.561Z,68.30
2022-11-01T10:22:35.310Z,68.80
2022-11-01T10:25:11.092Z,68.80
2022-11-01T10:28:10.266Z,68.90
2022-11-01T10:30:48.195Z,69.20
2022-11-01T10:33:35.518Z,69.30
2022-11-01T10:36:21.805Z,69.10
2022-11-01T10:42:16.749Z,69.40
2022-11-01T10:44:54.687Z,69.60
2022-11-01T10:47:24.351Z,69.80
2022-11-01T10:50:06.039Z,70.00
2022-11-01T10:52:50.246Z,70.00
2022-11-01T10:55:42.628Z,70.00
2022-11-01T10:58:28.128Z,69.80
2022-11-01T11:00:55.158Z,69.90
2022-11-01T11:03:26.753Z,70.20
2022-11-01T11:05:55.735Z,70.20
2022-11-01T11:08:24.444Z,70.40
2022-11-01T11:10:51.975Z,70.60
2022-11-01T11:13:24.460Z,71.00
2022-11-01T11:15:55.872Z,71.10
2022-11-01T11:18:29.698Z,71.30
2022-11-01T11:21:08.948Z,71.20
2022-11-01T11:23:46.048Z,70.30
2022-11-01T11:26:17.381Z,69.20
2022-11-01T11:28:57.079Z,68.90
2022-11-01T11:31:34.062Z,67.50
2022-11-01T11:34:27.603Z,66.00
2022-11-01T11:36:55.711Z,64.80
2022-11-01T11:39:37.804Z,64.00
2022-11-01T11:42:19.211Z,63.10
2022-11-01T11:44:55.587Z,62.90
2022-11-01T11:47:26.679Z,62.50
2022-11-01T11:49:54.693Z,62.40
2022-11-01T11:52:38.346Z,63.40
2022-11-01T11:55:45.724Z,62.80
2022-11-01T11:58:27.766Z,63.00
2022-11-01T12:01:06.886Z,63.20
2022-11-01T12:03:49.656Z,63.60
2022-11-01T12:06:26.098Z,63.80
2022-11-01T12:09:00.601Z,64.10
2022-11-01T12:11:46.427Z,64.40
2022-11-01T12:14:24.265Z,64.90
2022-11-01T12:16:51.951Z,65.30
2022-11-01T12:19:26.051Z,65.90
2022-11-01T12:21:54.855Z,66.20
2022-11-01T12:24:47.700Z,66.70
2022-11-01T12:27:20.987Z,67.50
2022-11-01T12:30:10.620Z,68.00
2022-11-01T12:33:03.209Z,68.90
2022-11-01T12:35:41.381Z,69.40
2022-11-01T12:38:33.919Z,70.00
2022-11-01T12:41:26.125Z,70.90
2022-11-01T12:44:30.497Z,70.90
2022-11-01T12:47:08.372Z,71.40
2022-11-01T12:49:38.287Z,71.60
2022-11-01T12:52:33.517Z,71.80
2022-11-01T12:55:15.338Z,72.40
2022-11-01T12:57:45.471Z,72.50
2022-11-01T13:00:18.718Z,72.70
2022-11-01T13:03:16.800Z,73.10
2022-11-01T13:05:52.323Z,73.40
2022-11-01T13:08:46.390Z,73.50
2022-11-01T13:11:40.326Z,73.80
2022-11-01T13:14:33.003Z,74.10
2022-11-01T13:17:21.519Z,74.20
2022-11-01T13:20:29.725Z,74.50
2022-11-01T13:23:38.003Z,74.90
2022-11-01T13:26:24.627Z,74.90
2022-11-01T13:32:26.199Z,75.00
2022-11-01T13:35:35.314Z,75.10
2022-11-01T13:38:27.701Z,75.90
2022-11-01T13:41:36.337Z,75.60
2022-11-01T13:44:14.348Z,75.00
2022-11-01T13:47:27.931Z,74.10
2022-11-01T13:50:16.485Z,73.00
2022-11-01T13:52:55.707Z,72.50
2022-11-01T13:55:37.991Z,72.30
2022-11-01T13:58:12.463Z,72.00
2022-11-01T14:00:55.599Z,71.70
2022-11-01T14:03:30.558Z,71.20
2022-11-01T14:06:24.198Z,70.90
2022-11-01T14:09:23.482Z,70.50
2022-11-01T14:12:11.440Z,70.60
2022-11-01T14:14:47.703Z,70.40
2022-11-01T14:17:20.773Z,70.40
2022-11-01T14:20:11.008Z,70.60
2022-11-01T14:22:39.903Z,70.70
2022-11-01T14:25:13.317Z,70.90
2022-11-01T14:27:48.801Z,71.00
2022-11-01T14:30:25.288Z,71.00
2022-11-01T14:33:15.939Z,71.40
2022-11-01T14:35:52.120Z,71.50
2022-11-01T14:38:35.755Z,71.60
2022-11-01T14:41:04.718Z,71.60
2022-11-01T14:43:52.579Z,71.70
2022-11-01T14:46:26.960Z,71.80
2022-11-01T14:49:19.198Z,71.80
2022-11-01T14:52:03.330Z,71.90
2022-11-01T14:55:03.999Z,71.90
2022-11-01T14:57:34.098Z,72.00
2022-11-01T15:00:30.640Z,71.90
2022-11-01T15:05:32.288Z,72.00
2022-11-01T15:07:59.795Z,72.10
2022-11-01T15:10:28.067Z,72.10
2022-11-01T15:12:59.156Z,72.20
2022-11-01T15:15:33.976Z,72.10
2022-11-01T15:18:17.703Z,72.20
2022-11-01T15:20:50.203Z,72.30
2022-11-01T15:23:32.400Z,72.10
2022-11-01T15:26:06.615Z,72.20
2022-11-01T15:28:40.550Z,72.00
2022-11-01T15:31:09.927Z,72.40
2022-11-01T15:33:37.434Z,72.40
2022-11-01T15:36:17.034Z,72.70
2022-11-01T15:38:56.329Z,72.80
2022-11-01T15:41:33.636Z,73.20
2022-11-01T15:44:06.954Z,73.30
2022-11-01T15:46:39.990Z,73.50
2022-11-01T15:49:17.833Z,73.70
2022-11-01T15:51:54.606Z,73.90
2022-11-01T15:54:32.045Z,74.30
2022-11-01T15:57:04.770Z,74.10
2022-11-01T16:00:06.638Z,74.10
2022-11-01T16:02:47.961Z,74.50
2022-11-01T16:05:24.059Z,74.40
2022-11-01T16:07:52.607Z,74.60
2022-11-01T16:10:30.928Z,75.00
2022-11-01T16:13:00.352Z,75.30
2022-11-01T16:15:33.717Z,75.70
2022-11-01T16:18:03.045Z,76.20
2022-11-01T16:20:30.516Z,76.40
2022-11-01T16:23:00.952Z,76.60
2022-11-01T16:25:32.868Z,76.90
2022-11-01T16:28:40.333Z,77.10
2022-11-01T16:31:23.232Z,77.80
2022-11-01T16:33:50.751Z,77.40
2022-11-01T16:36:20.637Z,77.40
2022-11-01T16:38:53.030Z,77.90
2022-11-01T16:41:26.645Z,78.10
2022-11-01T16:44:03.296Z,78.60
2022-11-01T16:46:30.317Z,79.00
2022-11-01T16:49:08.059Z,79.20
2022-11-01T16:51:35.149Z,79.00
2022-11-01T16:54:02.343Z,78.90
2022-11-01T16:56:38.334Z,79.30
2022-11-01T16:59:27.752Z,79.80
2022-11-01T17:01:58.077Z,80.50
2022-11-01T17:04:27.052Z,80.10
2022-11-01T17:06:55.845Z,80.40
2022-11-01T17:09:23.093Z,80.70
2022-11-01T17:11:51.707Z,80.80
2022-11-01T17:14:21.304Z,81.10
2022-11-01T17:16:51.980Z,81.40
2022-11-01T17:19:32.223Z,81.50
2022-11-01T17:22:11.644Z,81.80
2022-11-01T17:24:39.185Z,82.20
2022-11-01T17:27:06.698Z,82.00
2022-11-01T17:29:34.359Z,82.30
2022-11-01T17:32:02.834Z,82.60
2022-11-01T17:34:30.151Z,82.70
2022-11-01T17:36:57.615Z,83.00
2022-11-01T17:39:28.331Z,82.90
2022-11-01T17:41:56.290Z,83.20
2022-11-01T17:44:23.368Z,83.20
2022-11-01T17:46:50.385Z,83.30
2022-11-01T17:49:21.318Z,83.40
2022-11-01T17:51:54.138Z,83.50
2022-11-01T17:54:23.437Z,83.60
2022-11-01T17:56:51.395Z,83.50
2022-11-01T17:59:18.914Z,83.50
2022-11-01T18:01:45.944Z,83.40
2022-11-01T18:04:13.268Z,83.70
2022-11-01T18:06:43.915Z,83.70
2022-11-01T18:09:24.480Z,84.00
2022-11-01T18:12:13.893Z,84.20
2022-11-01T18:14:55.978Z,83.90
2022-11-01T18:17:49.047Z,84.10
2022-11-01T18:20:57.434Z,84.40
2022-11-01T18:23:25.541Z,84.40
2022-11-01T18:25:52.525Z,84.10
2022-11-01T18:28:26.569Z,84.30
2022-11-01T18:31:06.454Z,84.40
2022-11-01T18:34:07.182Z,84.80
2022-11-01T18:36:54.195Z,85.20
2022-11-01T18:39:42.891Z,85.10
2022-11-01T18:42:10.568Z,85.20
2022-11-01T18:44:38.922Z,84.20
2022-11-01T18:47:30.236Z,84.40
2022-11-01T18:49:59.931Z,85.20
2022-11-01T18:52:27.426Z,84.80
2022-11-01T18:54:56.854Z,84.90
2022-11-01T18:57:24.509Z,85.70
2022-11-01T18:59:53.680Z,85.00
2022-11-01T19:02:27.971Z,85.00
2022-11-01T19:05:18.216Z,85.20
2022-11-01T19:08:10.201Z,85.60
2022-11-01T19:10:41.263Z,85.50
2022-11-01T19:13:26.412Z,85.40
2022-11-01T19:15:54.407Z,85.50
2022-11-01T19:18:23.320Z,85.30
2022-11-01T19:20:53.401Z,85.40
2022-11-01T19:23:39.300Z,85.50
2022-11-01T19:26:36.138Z,86.00
2022-11-01T19:29:25.361Z,86.00
2022-11-01T19:31:58.175Z,85.80
2022-11-01T19:34:33.986Z,85.20
2022-11-01T19:37:06.457Z,85.10
2022-11-01T19:39:40.823Z,84.90
2022-11-01T19:42:33.124Z,84.70
2022-11-01T19:45:09.809Z,85.10
2022-11-01T19:47:43.378Z,85.00
2022-11-01T19:50:40.206Z,85.00
2022-11-01T19:53:29.868Z,85.10
2022-11-01T19:56:03.896Z,84.80
2022-11-01T19:58:53.943Z,84.50
2022-11-01T20:01:32.415Z,84.70
2022-11-01T20:04:15.005Z,85.00
2022-11-01T20:06:49.482Z,84.30
2022-11-01T20:09:24.300Z,84.30
2022-11-01T20:11:51.691Z,84.30
2022-11-01T20:14:18.821Z,84.20
2022-11-01T20:16:46.508Z,84.20
2022-11-01T20:19:17.390Z,84.30
2022-11-01T20:21:45.438Z,84.30
2022-11-01T20:24:14.567Z,84.40
2022-11-01T20:26:42.297Z,84.40
2022-11-01T20:29:09.678Z,84.50
2022-11-01T20:31:37.264Z,84.60
2022-11-01T20:34:04.428Z,84.90
2022-11-01T20:36:31.447Z,85.10
2022-11-01T20:38:58.459Z,85.30
2022-11-01T20:41:25.422Z,85.50
2022-11-01T20:43:52.255Z,85.50
2022-11-01T20:46:19.634Z,85.40
2022-11-01T20:48:46.506Z,85.40
2022-11-01T20:51:13.529Z,85.30
2022-11-01T20:53:41.380Z,85.40
2022-11-01T20:56:09.067Z,85.40
2022-11-01T20:58:41.863Z,85.60
2022-11-01T21:01:17.747Z,86.00
2022-11-01T21:03:45.449Z,86.80
2022-11-01T21:06:16.611Z,87.10
2022-11-01T21:08:47.317Z,87.40
2022-11-01T21:11:24.474Z,87.60
2022-11-01T21:13:52.412Z,87.50
2022-11-01T21:16:30.313Z,87.40
2022-11-01T21:19:02.237Z,87.10
2022-11-01T21:21:33.514Z,86.70
2022-11-01T21:24:20.738Z,86.40
2022-11-01T21:26:52.027Z,86.20
2022-11-01T21:29:27.102Z,86.00
2022-11-01T21:31:53.995Z,85.90
2022-11-01T21:34:26.677Z,85.70
2022-11-01T21:36:54.191Z,85.60
2022-11-01T21:39:28.226Z,85.50
2022-11-01T21:42:29.408Z,85.60
2022-11-01T21:44:57.067Z,85.60
2022-11-01T21:47:27.504Z,85.50
2022-11-01T21:49:54.861Z,85.60
2022-11-01T21:52:21.945Z,85.50
2022-11-01T21:54:49.629Z,85.50
2022-11-01T21:57:17.266Z,85.50
2022-11-01T21:59:44.596Z,85.50
2022-11-01T22:02:13.978Z,85.40
2022-11-01T22:04:41.529Z,85.50
2022-11-01T22:07:10.030Z,85.50
2022-11-01T22:09:37.932Z,85.60
2022-11-01T22:12:07.032Z,85.60
2022-11-01T22:14:34.386Z,85.60
2022-11-01T22:17:01.265Z,85.60
2022-11-01T22:19:28.306Z,85.70
2022-11-01T22:21:55.224Z,85.90
2022-11-01T22:24:23.523Z,86.00
2022-11-01T22:26:50.834Z,86.20
2022-11-01T22:29:17.915Z,86.30
2022-11-01T22:31:44.851Z,86.50
2022-11-01T22:34:12.395Z,86.50
2022-11-01T22:36:41.952Z,86.60
2022-11-01T22:39:25.098Z,86.50
2022-11-01T22:41:52.376Z,86.80
2022-11-01T22:44:26.431Z,86.70
2022-11-01T22:46:59.042Z,86.80
2022-11-01T22:49:38.053Z,86.70
2022-11-01T22:52:20.315Z,86.80
2022-11-01T22:54:48.941Z,86.70
2022-11-01T22:57:21.403Z,86.60
2022-11-01T22:59:53.915Z,86.60
2022-11-01T23:02:30.356Z,86.50
2022-11-01T23:05:06.614Z,86.50
2022-11-01T23:07:56.887Z,86.50
2022-11-01T23:10:27.432Z,86.50
2022-11-01T23:13:37.294Z,86.40
2022-11-01T23:16:24.238Z,86.70
2022-11-01T23:18:53.635Z,86.60
2022-11-01T23:21:22.517Z,86.40
2022-11-01T23:23:50.117Z,86.40
2022-11-01T23:26:18.713Z,86.50
2022-11-01T23:28:49.963Z,86.40
2022-11-01T23:31:18.082Z,86.50
2022-11-01T23:33:48.529Z,86.40
2022-11-01T23:36:37.957Z,86.40
2022-11-01T23:39:09.408Z,86.70
2022-11-01T23:41:40.872Z,86.60
2022-11-01T23:44:39.013Z,86.60
2022-11-01T23:47:37.433Z,86.90
2022-11-01T23:50:22.346Z,86.90
2022-11-01T23:53:02.483Z,87.30
2022-11-01T23:55:36.395Z,86.60
2022-11-01T23:58:07.419Z,86.50
